SLET/SRZ METAR and TAF weather

Enter ICAO airport designator
Station Type Date Time Source
SLET METAR 2020/04/06 22:00 UTC NOAA

SLET 062200Z 17006KT 9999 FEW017 FEW030CB SCT200 26/21 Q1012


Station Type Date Time Source
SLET Decoded METAR 2020/04/06 22:00 UTC NOAA

Santa Cruz / El Trompillo, Bolivia (SLET) 17-48S 063-11W 414M
Apr 06, 2020 - 06:00 PM EDT / 2020.04.06 2200 UTC
Wind: from the S (170 degrees) at 7 MPH (6 KT):0
Visibility: greater than 7 mile(s):0
Sky conditions: partly cloudy
Weather: Cumulonimbus clouds observed
Temperature: 78 F (26 C)
Dew Point: 69 F (21 C)
Relative Humidity: 73%
Pressure (altimeter): 29.88 in. Hg (1012 hPa)
ob: SLET 062200Z 17006KT 9999 FEW017 FEW030CB SCT200 26/21 Q1012
cycle: 22

Station Type Date Time Source
SLET TAF 2020/04/07 06:25 UTC NOAA

TAF SLET 070320Z 0706/0806 18010KT 9999 SCT015 FEW030CB TX28/0720Z TN22/0710Z PROB30 0705/0707 18010G23KT 8000 SHRA BKN017 FEW030CB
TEMPO 0708/0712 18016KT 9999 NSW BKN020
BECMG 0715/0719 FEW030CB

Example: see airport list